Time;durP1;ratioP1;P1;durP2;ratioP2;P2;SDS_P1;SDS_P2;PMS_P1;PMS_P2;Temp;Humidity;BMP_temperature;BMP_pressure;BME280_temperature;BME280_humidity;BME280_pressure;Samples;Min_cycle;Max_cycle;Signal;HPM_P1;HPM_P2
2022/07/11 00:00:21;;;;;;;0.77;0.30;;;19.90;63.00;;;;;;5111636;28;20395;-70
2022/07/11 00:02:46;;;;;;;0.28;0.10;;;19.90;63.00;;;;;;5110872;28;20056;-70
2022/07/11 00:05:12;;;;;;;2.25;0.20;;;19.90;63.00;;;;;;5111812;28;20039;-70
2022/07/11 00:07:40;;;;;;;1.50;0.10;;;19.90;63.10;;;;;;5111968;28;20039;-70
2022/07/11 00:10:07;;;;;;;0.70;0.30;;;19.90;63.10;;;;;;5111737;28;20096;-70
2022/07/11 00:12:32;;;;;;;1.17;0.20;;;19.90;63.10;;;;;;5095005;28;20042;-70
2022/07/11 00:14:58;;;;;;;0.93;0.20;;;19.90;63.10;;;;;;5111631;28;20399;-70
2022/07/11 00:17:23;;;;;;;1.20;0.10;;;19.90;63.10;;;;;;5112905;28;20127;-70
2022/07/11 00:19:49;;;;;;;0.60;0.20;;;19.90;63.10;;;;;;5111795;28;20109;-71
2022/07/11 00:22:15;;;;;;;1.08;0.20;;;19.90;63.20;;;;;;5112363;28;20570;-70
2022/07/11 00:24:41;;;;;;;1.15;0.20;;;19.90;63.20;;;;;;5111232;28;20110;-70
2022/07/11 00:27:07;;;;;;;1.38;0.20;;;19.90;63.20;;;;;;5111518;28;20046;-70
2022/07/11 00:29:33;;;;;;;0.50;0.20;;;19.90;63.20;;;;;;5112835;28;20042;-70
2022/07/11 00:31:59;;;;;;;0.45;0.20;;;19.90;63.20;;;;;;5111469;28;20099;-70
2022/07/11 00:34:25;;;;;;;0.80;0.10;;;19.90;63.30;;;;;;5112639;28;20463;-70
2022/07/11 00:36:50;;;;;;;0.50;0.10;;;19.90;63.30;;;;;;5111328;28;20536;-70
2022/07/11 00:39:16;;;;;;;0.55;0.30;;;19.90;63.30;;;;;;5111359;28;20039;-70
2022/07/11 00:41:42;;;;;;;1.02;0.20;;;19.80;63.30;;;;;;5110896;28;20043;-70
2022/07/11 00:44:08;;;;;;;0.47;0.10;;;19.90;63.40;;;;;;5112089;28;20395;-70
2022/07/11 00:46:34;;;;;;;0.65;0.20;;;19.90;63.40;;;;;;5111175;28;20043;-70
2022/07/11 00:49:00;;;;;;;0.63;0.20;;;19.90;63.40;;;;;;5112412;28;20112;-71
2022/07/11 00:51:27;;;;;;;0.50;0.20;;;19.90;63.50;;;;;;5112482;28;20043;-73
2022/07/11 00:53:55;;;;;;;0.45;0.20;;;19.90;63.50;;;;;;5112452;28;20048;-70
2022/07/11 00:56:25;;;;;;;0.68;0.20;;;19.90;63.50;;;;;;5111075;28;20058;-70
2022/07/11 00:58:52;;;;;;;0.77;0.20;;;19.90;63.50;;;;;;5110986;28;20062;-70
2022/07/11 01:01:18;;;;;;;1.65;0.25;;;19.90;63.60;;;;;;5110379;28;20055;-70
2022/07/11 01:03:45;;;;;;;0.82;0.20;;;19.80;63.50;;;;;;5110699;28;20097;-70
2022/07/11 01:06:11;;;;;;;0.80;0.20;;;19.80;63.60;;;;;;5112070;28;20043;-70
2022/07/11 01:08:39;;;;;;;0.30;0.10;;;19.80;63.60;;;;;;5112194;28;20040;-70
2022/07/11 01:11:12;;;;;;;0.70;0.20;;;19.80;63.70;;;;;;5111174;28;20044;-70
2022/07/11 01:13:40;;;;;;;0.73;0.20;;;19.80;63.70;;;;;;5112120;28;20447;-70
2022/07/11 01:16:12;;;;;;;0.68;0.17;;;19.80;63.70;;;;;;5110936;28;20036;-70
2022/07/11 01:18:39;;;;;;;0.77;0.20;;;19.80;63.80;;;;;;5111178;28;20062;-71
2022/07/11 01:21:18;;;;;;;1.88;0.45;;;19.80;63.80;;;;;;5110519;28;20044;-70
2022/07/11 01:23:46;;;;;;;1.00;0.15;;;19.80;63.90;;;;;;5110105;28;20050;-70
2022/07/11 01:26:12;;;;;;;0.35;0.10;;;19.80;63.90;;;;;;5112166;28;20044;-70
2022/07/11 01:28:37;;;;;;;0.95;0.15;;;19.80;63.90;;;;;;5110989;28;20039;-70
2022/07/11 01:31:03;;;;;;;0.82;0.20;;;19.80;64.00;;;;;;5110777;28;20043;-70
2022/07/11 01:33:32;;;;;;;0.88;0.38;;;19.80;64.00;;;;;;5110440;28;20066;-70
2022/07/11 01:36:01;;;;;;;0.40;0.20;;;19.70;64.00;;;;;;5110970;28;20100;-70
2022/07/11 01:38:26;;;;;;;0.30;0.20;;;19.80;64.10;;;;;;5110988;28;20036;-70
2022/07/11 01:40:52;;;;;;;0.82;0.20;;;19.70;64.00;;;;;;5110672;28;20097;-70
2022/07/11 01:43:17;;;;;;;0.45;0.20;;;19.70;64.10;;;;;;5109916;28;20582;-70
2022/07/11 01:45:43;;;;;;;1.27;0.20;;;19.70;64.10;;;;;;5110450;28;20118;-70
2022/07/11 01:48:09;;;;;;;0.20;0.10;;;19.70;64.20;;;;;;5110837;28;20048;-70
2022/07/11 01:50:34;;;;;;;0.40;0.20;;;19.80;64.30;;;;;;5110965;28;20453;-70
2022/07/11 01:53:01;;;;;;;0.40;0.15;;;19.70;64.20;;;;;;5110756;28;20040;-70
2022/07/11 01:55:27;;;;;;;0.63;0.17;;;19.70;64.20;;;;;;5110423;28;20054;-70
2022/07/11 01:57:53;;;;;;;1.05;0.20;;;19.80;64.30;;;;;;5110580;28;20040;-70
2022/07/11 02:00:19;;;;;;;0.95;0.20;;;19.70;64.30;;;;;;5110527;28;20047;-70
2022/07/11 02:02:45;;;;;;;0.57;0.20;;;19.70;64.30;;;;;;5109932;28;20044;-70
2022/07/11 02:05:10;;;;;;;0.82;0.20;;;19.70;64.30;;;;;;5109793;28;20032;-70
2022/07/11 02:10:21;;;;;;;1.05;0.57;;;19.70;64.30;;;;;;5113015;28;20039;-70
2022/07/11 02:12:47;;;;;;;0.50;0.20;;;19.70;64.40;;;;;;5113842;28;20047;-70
2022/07/11 02:15:13;;;;;;;0.77;0.17;;;19.70;64.40;;;;;;5113160;28;20047;-70
2022/07/11 02:17:39;;;;;;;0.80;0.15;;;19.70;64.40;;;;;;5113166;28;20457;-70
2022/07/11 02:20:05;;;;;;;0.68;0.20;;;19.70;64.40;;;;;;5113715;28;20070;-70
2022/07/11 02:22:34;;;;;;;0.80;0.10;;;19.70;64.40;;;;;;5113293;28;20124;-70
2022/07/11 02:24:59;;;;;;;0.30;0.15;;;19.70;64.40;;;;;;5114580;28;20123;-70
2022/07/11 02:27:25;;;;;;;0.30;0.10;;;19.70;64.50;;;;;;5115359;28;20481;-70
2022/07/11 02:29:51;;;;;;;0.55;0.20;;;19.70;64.40;;;;;;5114984;28;20032;-70
2022/07/11 02:32:19;;;;;;;0.85;0.20;;;19.70;64.50;;;;;;5114870;28;20043;-70
2022/07/11 02:34:48;;;;;;;0.52;0.20;;;19.70;64.50;;;;;;5113518;28;20534;-70
2022/07/11 02:37:13;;;;;;;0.75;0.20;;;19.70;64.50;;;;;;5114994;28;20035;-70
2022/07/11 02:39:39;;;;;;;0.77;0.68;;;19.70;64.50;;;;;;5113650;28;20041;-70
2022/07/11 02:42:05;;;;;;;0.77;0.43;;;19.70;64.60;;;;;;5112972;28;20035;-70
2022/07/11 02:44:31;;;;;;;0.90;0.30;;;19.70;64.60;;;;;;5112926;28;20061;-70
2022/07/11 02:46:56;;;;;;;0.30;0.20;;;19.70;64.60;;;;;;5114913;28;20032;-70
2022/07/11 02:49:23;;;;;;;0.85;0.30;;;19.60;64.50;;;;;;5114749;28;20039;-70
2022/07/11 02:51:49;;;;;;;0.70;0.20;;;19.60;64.50;;;;;;5115145;28;20051;-71
2022/07/11 02:54:14;;;;;;;0.65;0.20;;;19.70;64.60;;;;;;5113316;28;20039;-70
2022/07/11 02:56:40;;;;;;;0.88;0.20;;;19.60;64.60;;;;;;5113490;28;20097;-71
2022/07/11 02:59:05;;;;;;;2.42;0.20;;;19.60;64.60;;;;;;5114331;28;20511;-70
2022/07/11 03:01:31;;;;;;;1.15;0.20;;;19.60;64.60;;;;;;5112550;28;20391;-70
2022/07/11 03:03:57;;;;;;;1.48;0.20;;;19.70;64.60;;;;;;5112609;28;20040;-70
2022/07/11 03:06:22;;;;;;;1.00;0.20;;;19.60;64.60;;;;;;5112978;28;20045;-70
2022/07/11 03:08:48;;;;;;;0.63;0.20;;;19.60;64.60;;;;;;5112291;28;20636;-70
2022/07/11 03:11:14;;;;;;;0.52;0.15;;;19.60;64.60;;;;;;5112592;28;20035;-70
2022/07/11 03:13:39;;;;;;;1.88;0.20;;;19.60;64.60;;;;;;5114045;28;20118;-70
2022/07/11 03:16:05;;;;;;;0.40;0.10;;;19.60;64.60;;;;;;5112781;28;20154;-70
2022/07/11 03:18:31;;;;;;;1.23;0.20;;;19.60;64.60;;;;;;5112917;28;20040;-70
2022/07/11 03:20:56;;;;;;;0.90;0.30;;;19.60;64.60;;;;;;5113016;28;20046;-70
2022/07/11 03:23:22;;;;;;;0.55;0.20;;;19.60;64.70;;;;;;5112208;28;20221;-70
2022/07/11 03:25:48;;;;;;;1.30;0.20;;;19.60;64.60;;;;;;5113552;28;20407;-70
2022/07/11 03:28:13;;;;;;;1.00;0.20;;;19.60;64.70;;;;;;5112627;28;20043;-71
2022/07/11 03:30:39;;;;;;;0.50;0.20;;;19.60;64.70;;;;;;5112680;28;20047;-71
2022/07/11 03:33:04;;;;;;;1.85;0.20;;;19.60;64.70;;;;;;5112355;28;20046;-70
2022/07/11 03:35:46;;;;;;;1.35;0.40;;;19.60;64.70;;;;;;5112380;28;20035;-70
2022/07/11 03:38:12;;;;;;;0.65;0.20;;;19.60;64.80;;;;;;5112737;28;20390;-70
2022/07/11 03:40:39;;;;;;;0.73;0.30;;;19.60;64.70;;;;;;5112700;28;20122;-70
2022/07/11 03:43:04;;;;;;;1.80;0.25;;;19.60;64.80;;;;;;5112979;28;20039;-70
2022/07/11 03:45:30;;;;;;;0.45;0.20;;;19.70;64.80;;;;;;5113034;28;20073;-70
2022/07/11 03:47:55;;;;;;;0.73;0.20;;;19.60;64.80;;;;;;5112236;28;20031;-70
2022/07/11 03:50:21;;;;;;;0.85;0.30;;;19.60;64.80;;;;;;5111506;28;20054;-70
2022/07/11 03:52:47;;;;;;;1.13;0.20;;;19.60;64.80;;;;;;5112041;28;20100;-70
2022/07/11 03:55:13;;;;;;;0.70;0.20;;;19.60;64.80;;;;;;5113317;28;20078;-70
2022/07/11 03:57:38;;;;;;;1.65;0.28;;;19.60;64.80;;;;;;5112298;28;20554;-70
2022/07/11 04:00:06;;;;;;;0.80;0.20;;;19.60;64.80;;;;;;5112202;28;20036;-70
2022/07/11 04:02:32;;;;;;;0.30;0.20;;;19.60;64.80;;;;;;5111263;28;20073;-70
2022/07/11 04:04:58;;;;;;;0.60;0.20;;;19.60;64.90;;;;;;5111314;28;20047;-70
2022/07/11 04:07:25;;;;;;;0.70;0.30;;;19.60;64.90;;;;;;5111962;28;20131;-70
2022/07/11 04:09:50;;;;;;;2.28;0.20;;;19.60;64.90;;;;;;5113069;28;20471;-70
2022/07/11 04:12:18;;;;;;;1.83;0.22;;;19.60;64.80;;;;;;5113233;28;20035;-70
2022/07/11 04:14:44;;;;;;;0.90;0.25;;;19.60;64.90;;;;;;5111770;28;20074;-70
2022/07/11 04:17:09;;;;;;;1.55;0.52;;;19.60;64.90;;;;;;5113238;28;20035;-71
2022/07/11 04:19:35;;;;;;;1.00;0.30;;;19.60;64.90;;;;;;5113007;28;20364;-70
2022/07/11 04:22:01;;;;;;;1.17;0.20;;;19.60;64.90;;;;;;5111473;28;20040;-70
2022/07/11 04:24:27;;;;;;;1.88;0.30;;;19.60;64.90;;;;;;5111002;28;20551;-70
2022/07/11 04:26:52;;;;;;;0.20;0.10;;;19.60;65.00;;;;;;5111368;28;20046;-70
2022/07/11 04:29:18;;;;;;;1.35;0.20;;;19.60;64.90;;;;;;5111631;28;20050;-70
2022/07/11 04:31:44;;;;;;;1.08;0.25;;;19.60;65.00;;;;;;5111088;28;20429;-70
2022/07/11 04:34:09;;;;;;;0.40;0.20;;;19.60;64.90;;;;;;5111287;28;20036;-70
2022/07/11 04:36:35;;;;;;;1.08;0.28;;;19.60;65.00;;;;;;5111255;28;20047;-70
2022/07/11 04:39:00;;;;;;;0.75;0.20;;;19.60;64.90;;;;;;5112685;28;20035;-70
2022/07/11 04:41:26;;;;;;;1.02;0.20;;;19.60;64.90;;;;;;5111184;28;20070;-70
2022/07/11 04:43:52;;;;;;;1.58;0.22;;;19.60;65.00;;;;;;5111028;28;20130;-70
2022/07/11 04:46:17;;;;;;;0.38;0.20;;;19.60;65.00;;;;;;5111938;28;20038;-70
2022/07/11 04:48:43;;;;;;;1.42;0.30;;;19.60;65.00;;;;;;5111277;28;20074;-70
2022/07/11 04:51:11;;;;;;;1.05;0.35;;;19.60;65.00;;;;;;5111464;28;20084;-70
2022/07/11 04:53:37;;;;;;;0.50;0.22;;;19.70;65.00;;;;;;5111086;28;20039;-70
2022/07/11 04:56:03;;;;;;;1.77;0.20;;;19.60;65.70;;;;;;5112309;27;20164;-70
2022/07/11 04:58:32;;;;;;;0.80;0.30;;;19.60;65.00;;;;;;5111381;28;20470;-70
2022/07/11 05:00:58;;;;;;;1.23;0.22;;;19.60;65.00;;;;;;5110999;28;20042;-70
2022/07/11 05:03:24;;;;;;;0.98;0.30;;;19.60;65.00;;;;;;5111694;28;20060;-70
2022/07/11 05:05:50;;;;;;;0.43;0.20;;;19.60;65.00;;;;;;5110295;28;20402;-70
2022/07/11 05:08:15;;;;;;;0.93;0.20;;;19.60;65.00;;;;;;5112450;28;20053;-70
2022/07/11 05:10:41;;;;;;;1.08;0.40;;;19.60;65.00;;;;;;5112293;28;20044;-70
2022/07/11 05:13:07;;;;;;;1.38;0.20;;;19.60;65.00;;;;;;5111288;28;20379;-70
2022/07/11 05:15:33;;;;;;;0.73;0.20;;;19.60;65.00;;;;;;5111957;28;20036;-70
2022/07/11 05:17:58;;;;;;;1.42;0.30;;;19.60;65.00;;;;;;5110976;28;20081;-70
2022/07/11 05:20:27;;;;;;;0.98;0.22;;;19.60;65.00;;;;;;5110937;28;20040;-70
2022/07/11 05:22:53;;;;;;;0.52;0.20;;;19.60;65.10;;;;;;5110691;28;20399;-72
2022/07/11 05:25:18;;;;;;;1.58;0.20;;;19.60;65.00;;;;;;5111220;28;20047;-71
2022/07/11 05:27:44;;;;;;;0.88;0.20;;;19.60;65.00;;;;;;5111191;28;20074;-70
2022/07/11 05:30:10;;;;;;;0.30;0.20;;;19.60;65.00;;;;;;5111170;28;20040;-70
2022/07/11 05:32:35;;;;;;;0.70;0.20;;;19.60;65.00;;;;;;5109128;28;20043;-74
2022/07/11 05:35:02;;;;;;;0.40;0.10;;;19.60;65.30;;;;;;5109090;28;20484;-74
2022/07/11 05:37:28;;;;;;;1.42;0.20;;;19.70;65.90;;;;;;5107601;28;20071;-77
2022/07/11 05:39:56;;;;;;;3.15;0.20;;;19.70;66.20;;;;;;5108211;28;20546;-76
2022/07/11 05:42:22;;;;;;;1.75;0.10;;;19.70;66.60;;;;;;5108008;28;20044;-71
2022/07/11 05:44:49;;;;;;;3.00;0.20;;;19.80;66.50;;;;;;5109760;28;20081;-78
2022/07/11 05:47:16;;;;;;;2.38;0.20;;;19.80;66.60;;;;;;5112277;28;20070;-79
2022/07/11 05:49:44;;;;;;;1.95;0.20;;;19.80;67.00;;;;;;5113068;28;20042;-75
2022/07/11 05:52:13;;;;;;;1.35;0.13;;;19.90;67.30;;;;;;5110206;28;20046;-73
2022/07/11 05:54:39;;;;;;;0.98;0.13;;;19.90;67.50;;;;;;5110664;28;20177;-68
2022/07/11 05:57:05;;;;;;;2.25;0.20;;;19.90;67.80;;;;;;5112335;28;20110;-79
2022/07/11 05:59:30;;;;;;;0.88;0.17;;;20.00;68.00;;;;;;5110440;28;20422;-78
2022/07/11 06:01:56;;;;;;;0.70;0.28;;;20.00;67.60;;;;;;5108682;28;20063;-79
2022/07/11 06:04:22;;;;;;;1.58;0.10;;;20.00;68.30;;;;;;5109965;28;20043;-77
2022/07/11 06:06:47;;;;;;;0.60;0.10;;;20.10;67.40;;;;;;5108421;28;20626;-80
2022/07/11 06:09:14;;;;;;;4.03;0.20;;;20.10;67.30;;;;;;5099510;28;20527;-73
2022/07/11 06:11:39;;;;;;;2.03;0.10;;;20.10;67.20;;;;;;5096932;28;20190;-72
2022/07/11 06:14:05;;;;;;;1.83;0.13;;;20.10;67.10;;;;;;5098326;28;20114;-71
2022/07/11 06:16:31;;;;;;;0.73;0.10;;;20.10;67.00;;;;;;5102160;27;20036;-72
2022/07/11 06:18:58;;;;;;;1.60;0.20;;;20.10;66.90;;;;;;5101002;28;20043;-72
2022/07/11 06:21:24;;;;;;;2.47;0.20;;;20.10;66.80;;;;;;5099792;28;20051;-70
2022/07/11 06:23:50;;;;;;;2.65;0.10;;;20.10;66.70;;;;;;5082193;28;20515;-69
2022/07/11 06:26:16;;;;;;;1.75;0.10;;;20.10;66.90;;;;;;5093188;28;20034;-68
2022/07/11 06:28:42;;;;;;;2.63;0.10;;;20.20;67.00;;;;;;5107250;27;20046;-71
2022/07/11 06:31:09;;;;;;;3.53;0.20;;;20.20;67.10;;;;;;5090854;28;20055;-71
2022/07/11 06:33:35;;;;;;;1.85;0.20;;;20.20;67.20;;;;;;5108818;27;20044;-73
2022/07/11 06:36:01;;;;;;;1.50;0.10;;;20.20;67.90;;;;;;5090155;27;20032;-72
2022/07/11 06:38:28;;;;;;;2.58;0.20;;;20.30;67.40;;;;;;5092433;28;20680;-68
2022/07/11 06:40:54;;;;;;;0.52;0.10;;;20.30;67.30;;;;;;5107396;27;20095;-68
2022/07/11 06:43:20;;;;;;;0.85;0.20;;;20.30;67.20;;;;;;5089749;27;20046;-68
2022/07/11 06:45:46;;;;;;;5.57;0.32;;;20.30;67.40;;;;;;5091135;28;20040;-69
2022/07/11 06:48:16;;;;;;;1.50;0.10;;;20.30;67.60;;;;;;5089257;28;20035;-68
2022/07/11 06:50:42;;;;;;;2.58;0.10;;;20.40;67.90;;;;;;5092031;27;20032;-71
2022/07/11 06:53:07;;;;;;;3.03;0.08;;;20.40;68.00;;;;;;5095772;28;20051;-69
2022/07/11 06:55:34;;;;;;;1.13;0.10;;;20.40;68.40;;;;;;5092883;28;20032;-73
2022/07/11 06:58:00;;;;;;;3.92;0.10;;;20.40;68.60;;;;;;5093913;27;20052;-68
2022/07/11 07:00:27;;;;;;;3.92;0.20;;;20.40;68.80;;;;;;5097074;28;20036;-72
2022/07/11 07:02:56;;;;;;;3.63;0.22;;;20.50;69.10;;;;;;5097567;28;20055;-74
2022/07/11 07:05:23;;;;;;;6.57;0.10;;;20.50;69.30;;;;;;5109051;27;20096;-74
2022/07/11 07:07:50;;;;;;;2.33;0.10;;;20.50;69.40;;;;;;5092942;28;20048;-75
2022/07/11 07:10:15;;;;;;;0.98;0.10;;;20.60;69.60;;;;;;5108539;27;20040;-76
2022/07/11 07:12:41;;;;;;;3.33;0.68;;;20.60;69.30;;;;;;5106451;27;20580;-75
2022/07/11 07:15:07;;;;;;;5.55;0.10;;;20.60;69.30;;;;;;5107208;27;20036;-75
2022/07/11 07:17:33;;;;;;;2.22;0.10;;;20.60;69.10;;;;;;5091596;28;20043;-76
2022/07/11 07:19:58;;;;;;;3.80;0.68;;;20.60;69.00;;;;;;5106276;27;20039;-74
2022/07/11 07:22:24;;;;;;;2.58;0.20;;;20.60;69.00;;;;;;5090228;28;20579;-72
2022/07/11 07:24:49;;;;;;;1.60;0.65;;;20.60;69.00;;;;;;5103989;27;20040;-73
2022/07/11 07:27:15;;;;;;;5.63;0.10;;;20.60;68.70;;;;;;5102686;27;20106;-72
2022/07/11 07:29:41;;;;;;;1.27;0.10;;;20.60;68.50;;;;;;5090132;28;20044;-72
2022/07/11 07:32:07;;;;;;;1.70;0.00;;;20.70;68.30;;;;;;5104841;27;20117;-72
2022/07/11 07:34:32;;;;;;;1.02;0.10;;;20.60;68.10;;;;;;5089216;28;20057;-75
2022/07/11 07:37:01;;;;;;;2.53;0.08;;;20.60;68.10;;;;;;5088165;28;20093;-76
2022/07/11 07:39:27;;;;;;;3.10;0.10;;;20.60;68.00;;;;;;5104592;27;20330;-73
2022/07/11 07:41:56;;;;;;;1.40;0.00;;;20.70;68.20;;;;;;5090795;28;20035;-72
2022/07/11 07:44:21;;;;;;;1.48;0.00;;;20.60;68.00;;;;;;5092147;28;20044;-73
2022/07/11 07:46:47;;;;;;;0.98;0.00;;;20.60;68.00;;;;;;5101590;27;20169;-71
2022/07/11 07:49:13;;;;;;;2.83;0.08;;;20.60;67.80;;;;;;5088341;28;20373;-72
2022/07/11 07:51:38;;;;;;;3.15;0.13;;;20.60;67.70;;;;;;5081215;28;20123;-72
2022/07/11 07:54:04;;;;;;;0.32;0.00;;;20.60;67.60;;;;;;5085887;28;20053;-71
2022/07/11 07:56:30;;;;;;;0.55;0.00;;;20.60;67.50;;;;;;5085081;27;20046;-71
2022/07/11 07:58:58;;;;;;;3.92;0.00;;;20.60;67.40;;;;;;5085827;28;20047;-72
2022/07/11 08:01:41;;;;;;;1.75;0.10;;;20.60;67.30;;;;;;5083334;28;20043;-73
2022/07/11 08:04:08;;;;;;;3.72;0.10;;;20.60;67.20;;;;;;5092635;28;20444;-73
2022/07/11 08:06:35;;;;;;;1.38;0.10;;;20.60;67.00;;;;;;5085829;28;20059;-73
2022/07/11 08:09:01;;;;;;;1.48;0.03;;;20.60;67.00;;;;;;5088637;28;20039;-71
2022/07/11 08:11:28;;;;;;;2.78;0.08;;;20.60;67.60;;;;;;5078275;28;20100;-72
2022/07/11 08:13:54;;;;;;;1.85;0.10;;;20.60;66.70;;;;;;5082267;28;20040;-73
2022/07/11 08:16:20;;;;;;;0.50;0.00;;;20.60;66.60;;;;;;5080047;28;20054;-71
2022/07/11 08:18:45;;;;;;;0.20;0.00;;;20.60;66.50;;;;;;5083769;28;20635;-71
2022/07/11 08:21:14;;;;;;;2.08;0.10;;;20.60;66.50;;;;;;5083116;28;20047;-71
2022/07/11 08:23:40;;;;;;;0.20;0.00;;;20.60;66.40;;;;;;5079267;28;20043;-71
2022/07/11 08:26:06;;;;;;;0.60;0.00;;;20.60;66.20;;;;;;5083478;28;20109;-72
2022/07/11 08:28:32;;;;;;;0.20;0.00;;;20.60;66.10;;;;;;5085577;28;20666;-71
2022/07/11 08:30:58;;;;;;;1.67;0.03;;;20.70;66.00;;;;;;5098767;27;20040;-71
2022/07/11 08:33:23;;;;;;;0.20;0.00;;;20.70;65.90;;;;;;5082858;28;20097;-68
2022/07/11 08:35:49;;;;;;;0.08;0.00;;;20.70;65.80;;;;;;5097342;27;20154;-68
2022/07/11 08:38:14;;;;;;;0.30;0.00;;;20.70;65.60;;;;;;5084890;28;20047;-68
2022/07/11 08:40:41;;;;;;;0.55;0.10;;;20.80;65.60;;;;;;5084738;28;20044;-68
2022/07/11 08:43:15;;;;;;;0.20;0.00;;;20.80;65.50;;;;;;5084761;28;20535;-68
2022/07/11 08:45:44;;;;;;;0.20;0.00;;;20.80;65.30;;;;;;5088629;28;20061;-71
2022/07/11 08:48:10;;;;;;;0.52;0.00;;;20.80;65.30;;;;;;5086950;28;20683;-68
2022/07/11 08:50:36;;;;;;;0.20;0.00;;;20.80;65.10;;;;;;5082902;28;20101;-68
2022/07/11 08:53:03;;;;;;;0.57;0.10;;;20.80;65.10;;;;;;5088363;28;20067;-69
2022/07/11 08:55:29;;;;;;;0.10;0.00;;;20.90;65.00;;;;;;5086393;28;20090;-68
2022/07/11 08:57:55;;;;;;;0.40;0.00;;;20.90;65.00;;;;;;5087786;28;20550;-68
2022/07/11 09:00:22;;;;;;;1.05;0.10;;;20.90;64.90;;;;;;5085193;28;20923;-68
2022/07/11 09:02:49;;;;;;;0.20;0.00;;;20.90;64.90;;;;;;5088467;28;20061;-69
2022/07/11 09:05:15;;;;;;;0.75;0.00;;;20.80;64.80;;;;;;5101019;27;20044;-68
2022/07/11 09:07:44;;;;;;;0.10;0.00;;;20.80;64.70;;;;;;5084064;28;20067;-69
2022/07/11 09:10:09;;;;;;;0.20;0.00;;;20.80;64.80;;;;;;5089103;28;20614;-68
2022/07/11 09:12:35;;;;;;;0.17;0.10;;;20.80;64.80;;;;;;5089421;28;20126;-71
2022/07/11 09:15:01;;;;;;;0.38;0.00;;;20.80;64.80;;;;;;5087091;28;20124;-69
2022/07/11 09:17:31;;;;;;;0.25;0.00;;;20.80;64.80;;;;;;5089026;28;20071;-69
2022/07/11 09:19:56;;;;;;;0.30;0.10;;;20.80;65.00;;;;;;5090824;28;20047;-70
2022/07/11 09:25:21;;;;;;;0.57;0.05;;;20.80;64.70;;;;;;5091957;28;20043;-69
2022/07/11 09:30:29;;;;;;;0.00;0.00;;;20.80;64.60;;;;;;5088775;27;20465;-70
2022/07/11 09:35:35;;;;;;;0.80;0.00;;;20.90;64.50;;;;;;5121440;27;1169124;-70
2022/07/11 09:38:04;;;;;;;0.10;0.00;;;20.90;64.40;;;;;;5133435;27;20057;-70
2022/07/11 09:40:30;;;;;;;0.35;0.00;;;21.00;64.20;;;;;;5131725;27;20066;-68
2022/07/11 09:42:57;;;;;;;0.28;0.00;;;21.10;64.00;;;;;;5127708;27;20043;-69
2022/07/11 09:45:26;;;;;;;0.38;0.00;;;21.20;63.70;;;;;;5149291;27;20042;-68
2022/07/11 09:47:58;;;;;;;0.17;0.00;;;21.20;63.50;;;;;;5129966;27;20064;-69
2022/07/11 09:50:28;;;;;;;0.75;0.00;;;21.20;63.50;;;;;;5134531;27;20046;-69
2022/07/11 09:55:42;;;;;;;0.82;0.00;;;21.10;63.50;;;;;;5092321;27;1883983;-69
2022/07/11 09:58:11;;;;;;;0.22;0.00;;;21.10;63.50;;;;;;5127914;27;20118;-70
2022/07/11 10:00:38;;;;;;;0.38;0.00;;;21.10;64.30;;;;;;5118771;27;20417;-68
2022/07/11 10:03:06;;;;;;;0.40;0.00;;;21.10;63.60;;;;;;5129479;27;20149;-69
2022/07/11 10:05:32;;;;;;;2.63;0.00;;;21.10;63.70;;;;;;5129155;27;20075;-70
2022/07/11 10:07:59;;;;;;;1.20;0.00;;;21.10;63.60;;;;;;5122477;27;20122;-69
2022/07/11 10:10:26;;;;;;;0.20;0.00;;;21.10;63.60;;;;;;5129189;27;20530;-70
2022/07/11 10:12:53;;;;;;;0.43;0.03;;;21.10;63.60;;;;;;5142927;27;20039;-70
2022/07/11 10:15:22;;;;;;;0.47;0.00;;;21.10;63.60;;;;;;5119276;27;20393;-69
2022/07/11 10:29:11;;;;;;;0.20;0.00;;;21.10;63.50;;;;;;5061107;27;20381;-70
2022/07/11 10:31:37;;;;;;;0.57;0.00;;;21.10;63.50;;;;;;5030786;28;20045;-69
2022/07/11 10:34:15;;;;;;;0.00;0.00;;;21.10;63.40;;;;;;5041886;28;20117;-69
2022/07/11 10:36:43;;;;;;;0.10;0.00;;;21.10;63.40;;;;;;5059517;28;20076;-71
2022/07/11 10:39:26;;;;;;;0.95;0.00;;;21.10;63.30;;;;;;5039981;28;20045;-70
2022/07/11 10:41:53;;;;;;;0.20;0.00;;;21.10;63.40;;;;;;5047073;28;20057;-70
2022/07/11 10:44:19;;;;;;;0.15;0.00;;;21.10;63.40;;;;;;5037352;28;21481;-70
2022/07/11 10:46:44;;;;;;;0.17;0.00;;;21.10;63.30;;;;;;5054382;28;20562;-71
2022/07/11 10:49:21;;;;;;;0.10;0.00;;;21.20;63.30;;;;;;5048664;28;20124;-70
2022/07/11 10:51:57;;;;;;;0.40;0.00;;;21.10;63.20;;;;;;5018271;28;20049;-70
2022/07/11 10:57:46;;;;;;;0.00;0.00;;;21.10;63.20;;;;;;5122634;27;1160029;-69
2022/07/11 11:00:14;;;;;;;1.42;0.08;;;21.10;63.20;;;;;;5134219;27;20129;-70
2022/07/11 11:03:01;;;;;;;0.52;0.20;;;21.10;63.20;;;;;;5134738;27;20030;-70
2022/07/11 11:05:48;;;;;;;0.10;0.00;;;21.10;63.20;;;;;;5138426;27;20034;-68
2022/07/11 11:14:22;;;;;;;0.52;0.00;;;21.10;63.20;;;;;;5073089;27;20218;-68
2022/07/11 11:16:49;;;;;;;0.38;0.00;;;21.10;63.20;;;;;;5029703;28;20135;-70
2022/07/11 11:19:55;;;;;;;0.60;0.00;;;21.10;63.30;;;;;;5063593;28;20045;-69
2022/07/11 11:22:23;;;;;;;0.00;0.00;;;21.10;63.30;;;;;;5061417;28;20037;-72
2022/07/11 11:24:52;;;;;;;0.47;0.00;;;21.10;63.30;;;;;;5059289;28;20045;-73
2022/07/11 11:27:24;;;;;;;0.40;0.00;;;21.10;63.30;;;;;;5029109;28;20091;-72
2022/07/11 11:29:53;;;;;;;0.75;0.00;;;21.10;63.30;;;;;;5064275;28;20089;-72
2022/07/11 11:32:28;;;;;;;0.10;0.00;;;21.10;63.20;;;;;;5029100;28;20044;-72
2022/07/11 11:34:54;;;;;;;0.10;0.00;;;21.10;63.20;;;;;;5032014;28;20078;-73
2022/07/11 11:37:21;;;;;;;0.40;0.00;;;21.10;63.20;;;;;;5026313;28;20037;-74
2022/07/11 11:39:47;;;;;;;0.20;0.00;;;21.10;63.20;;;;;;5035305;28;20128;-73
2022/07/11 11:42:16;;;;;;;0.10;0.00;;;21.10;63.20;;;;;;5070501;28;20045;-73
2022/07/11 11:47:31;;;;;;;0.22;0.00;;;21.10;63.30;;;;;;5067252;27;20411;-72
2022/07/11 11:49:59;;;;;;;0.10;0.00;;;21.10;63.30;;;;;;5073800;28;20262;-72
2022/07/11 11:52:28;;;;;;;0.10;0.00;;;21.10;63.20;;;;;;5084321;28;20055;-72
2022/07/11 11:54:55;;;;;;;0.08;0.00;;;21.10;63.20;;;;;;5051317;28;20563;-72
2022/07/11 11:57:27;;;;;;;0.10;0.00;;;21.10;63.20;;;;;;5049424;28;20381;-73
2022/07/11 11:59:53;;;;;;;0.20;0.00;;;21.20;63.10;;;;;;5081036;28;20051;-72
2022/07/11 12:02:25;;;;;;;0.13;0.00;;;21.20;63.10;;;;;;5054944;28;20051;-72
2022/07/11 12:04:50;;;;;;;0.30;0.00;;;21.20;63.10;;;;;;5076523;28;20396;-71
2022/07/11 12:07:24;;;;;;;0.13;0.00;;;21.20;63.10;;;;;;5062247;28;20052;-70
2022/07/11 12:09:55;;;;;;;0.20;0.00;;;21.20;63.10;;;;;;5048113;28;20064;-70
2022/07/11 12:12:53;;;;;;;0.00;0.00;;;21.20;63.10;;;;;;5046997;28;20045;-71
2022/07/11 12:18:05;;;;;;;0.80;0.00;;;21.20;63.10;;;;;;5079018;27;20485;-70
2022/07/11 12:20:39;;;;;;;0.40;0.00;;;21.20;63.10;;;;;;5065442;28;20044;-70
2022/07/11 12:23:07;;;;;;;1.65;0.00;;;21.20;63.20;;;;;;5066853;28;20036;-70
2022/07/11 12:25:38;;;;;;;0.10;0.00;;;21.20;63.10;;;;;;5070844;28;20048;-70
2022/07/11 12:28:04;;;;;;;0.20;0.00;;;21.20;63.10;;;;;;5060837;28;20028;-70
2022/07/11 12:30:30;;;;;;;0.00;0.00;;;21.20;63.10;;;;;;5070508;28;22170;-71
2022/07/11 12:33:05;;;;;;;0.20;0.00;;;21.20;63.00;;;;;;5074787;28;20123;-68
2022/07/11 12:35:31;;;;;;;0.00;0.00;;;21.20;63.00;;;;;;5071977;28;20048;-70
2022/07/11 12:37:56;;;;;;;0.40;0.00;;;21.20;63.10;;;;;;5067384;28;20047;-70
2022/07/11 12:40:22;;;;;;;0.17;0.00;;;21.20;63.10;;;;;;5059568;28;20045;-71
2022/07/11 12:42:48;;;;;;;0.25;0.00;;;21.20;63.10;;;;;;5070041;28;20045;-70
2022/07/11 12:45:15;;;;;;;0.10;0.00;;;21.20;63.20;;;;;;5073724;28;20090;-70
2022/07/11 12:47:44;;;;;;;0.25;0.10;;;21.20;63.20;;;;;;5073724;28;20076;-71
2022/07/11 12:50:27;;;;;;;0.90;0.00;;;21.20;63.20;;;;;;5066722;28;20399;-70
2022/07/11 12:52:58;;;;;;;0.17;0.00;;;21.30;63.20;;;;;;5068466;28;20698;-70
2022/07/11 12:55:28;;;;;;;0.05;0.00;;;21.30;63.20;;;;;;5070690;28;20390;-68
2022/07/11 12:58:16;;;;;;;1.17;0.05;;;21.30;63.30;;;;;;5069672;28;20043;-79
2022/07/11 13:00:56;;;;;;;0.65;0.00;;;21.40;65.70;;;;;;5071655;28;20040;-77
2022/07/11 13:06:09;;;;;;;5.25;0.20;;;21.40;65.60;;;;;;5103089;27;20307;-76
2022/07/11 13:08:52;;;;;;;4.22;0.30;;;21.60;66.40;;;;;;5105172;28;20057;-77
2022/07/11 13:11:20;;;;;;;3.03;0.10;;;21.70;66.70;;;;;;5111346;28;20459;-77
2022/07/11 13:13:48;;;;;;;2.13;0.22;;;21.70;67.00;;;;;;5105143;28;20438;-78
2022/07/11 13:16:15;;;;;;;2.30;0.22;;;21.80;67.10;;;;;;5098855;28;20036;-77
2022/07/11 13:18:41;;;;;;;3.08;0.25;;;21.80;67.10;;;;;;5102181;28;20035;-77
2022/07/11 13:21:07;;;;;;;1.70;0.20;;;21.80;66.90;;;;;;5099222;28;20160;-76
2022/07/11 13:23:34;;;;;;;2.30;0.10;;;21.80;66.70;;;;;;5097953;28;20042;-77
2022/07/11 13:25:59;;;;;;;6.53;0.15;;;21.80;66.60;;;;;;5097023;28;20093;-74
2022/07/11 13:28:25;;;;;;;1.23;0.00;;;21.90;66.60;;;;;;5090427;28;20031;-75